Time;durP1;ratioP1;P1;durP2;ratioP2;P2;SDS_P1;SDS_P2;PMS_P1;PMS_P2;Temp;Humidity;BMP_temperature;BMP_pressure;BME280_temperature;BME280_humidity;BME280_pressure;Samples;Min_cycle;Max_cycle;Signal;HPM_P1;HPM_P2
2022/09/23 00:02:16;;;;;;;5.27;3.63;;;16.70;80.50;;;;;;4936552;29;20444;-72
2022/09/23 00:04:45;;;;;;;2.90;2.10;;;16.70;80.50;;;;;;4936588;29;21002;-72
2022/09/23 00:07:16;;;;;;;2.30;2.10;;;16.60;80.30;;;;;;4953473;28;20448;-72
2022/09/23 00:09:45;;;;;;;2.40;1.77;;;16.60;80.40;;;;;;4953822;29;20908;-72
2022/09/23 00:12:11;;;;;;;3.73;2.30;;;16.60;80.30;;;;;;4920979;29;20421;-72
2022/09/23 00:14:40;;;;;;;2.40;2.10;;;16.60;80.40;;;;;;4936879;29;20540;-72
2022/09/23 00:17:08;;;;;;;2.50;2.07;;;16.60;80.40;;;;;;4952792;29;20444;-72
2022/09/23 00:19:40;;;;;;;4.03;2.30;;;16.60;80.40;;;;;;4936718;29;20429;-72
2022/09/23 00:22:06;;;;;;;3.10;2.10;;;16.60;80.50;;;;;;4936936;29;20440;-72
2022/09/23 00:24:32;;;;;;;2.77;2.20;;;16.60;80.50;;;;;;4936119;29;20427;-71
2022/09/23 00:27:01;;;;;;;3.07;2.23;;;16.60;80.50;;;;;;4936764;29;20463;-71
2022/09/23 00:29:30;;;;;;;3.03;1.97;;;16.60;80.50;;;;;;4953382;29;20563;-72
2022/09/23 00:32:25;;;;;;;3.47;2.40;;;16.60;80.50;;;;;;4939282;29;20440;-72
2022/09/23 00:34:52;;;;;;;4.87;2.17;;;16.50;80.50;;;;;;4936520;29;20488;-72
2022/09/23 00:37:20;;;;;;;4.93;2.27;;;16.50;80.50;;;;;;4936423;28;20541;-72
2022/09/23 00:39:46;;;;;;;4.13;2.60;;;16.50;80.60;;;;;;4927457;29;20436;-72
2022/09/23 00:42:19;;;;;;;3.13;2.27;;;16.50;80.50;;;;;;4936845;29;20260;-71
2022/09/23 00:44:48;;;;;;;2.97;1.90;;;16.50;80.50;;;;;;4952356;29;20452;-71
2022/09/23 00:47:23;;;;;;;4.53;2.20;;;16.50;80.60;;;;;;4921039;29;20981;-72
2022/09/23 00:50:23;;;;;;;3.20;2.40;;;16.50;80.60;;;;;;4953620;29;20423;-71
2022/09/23 00:52:51;;;;;;;4.37;2.80;;;16.50;80.60;;;;;;4904753;29;20442;-71
2022/09/23 00:55:24;;;;;;;2.97;2.50;;;16.50;80.70;;;;;;4952186;29;20444;-72
2022/09/23 00:57:53;;;;;;;3.80;2.40;;;16.50;80.70;;;;;;4955696;28;20466;-72
2022/09/23 01:00:20;;;;;;;3.47;2.60;;;16.40;80.50;;;;;;4940303;29;20866;-71
2022/09/23 01:02:51;;;;;;;4.30;3.00;;;16.40;80.50;;;;;;4939990;29;20453;-72
2022/09/23 01:05:18;;;;;;;2.40;2.20;;;16.40;80.60;;;;;;4956728;29;20530;-72
2022/09/23 01:07:47;;;;;;;2.93;2.63;;;16.40;80.60;;;;;;4939718;29;20466;-72
2022/09/23 01:10:15;;;;;;;2.33;2.13;;;16.40;80.70;;;;;;4939187;29;20456;-72
2022/09/23 01:13:00;;;;;;;6.03;2.27;;;16.40;80.70;;;;;;4939823;29;20411;-72
2022/09/23 01:16:06;;;;;;;2.53;2.17;;;16.40;80.70;;;;;;4939575;29;20977;-72
2022/09/23 01:18:56;;;;;;;3.40;2.30;;;16.40;80.70;;;;;;4956362;29;20503;-72
2022/09/23 01:21:33;;;;;;;3.27;2.30;;;16.40;80.80;;;;;;4939851;29;20411;-72
2022/09/23 01:24:14;;;;;;;2.23;2.00;;;16.40;80.90;;;;;;4923544;29;20787;-71
2022/09/23 01:27:04;;;;;;;2.10;1.90;;;16.30;80.70;;;;;;4954972;29;20482;-72
2022/09/23 01:29:58;;;;;;;5.00;2.30;;;16.30;80.70;;;;;;4938936;29;20905;-72
2022/09/23 01:32:35;;;;;;;2.20;2.00;;;16.30;80.80;;;;;;4939199;29;20491;-71
2022/09/23 01:35:29;;;;;;;2.70;1.97;;;16.30;80.80;;;;;;4939310;29;21050;-72
2022/09/23 01:38:02;;;;;;;4.47;1.93;;;16.30;80.80;;;;;;4944242;28;20455;-72
2022/09/23 01:40:51;;;;;;;3.67;2.10;;;16.30;80.90;;;;;;4939196;29;20775;-72
2022/09/23 01:43:37;;;;;;;2.80;1.93;;;16.30;81.00;;;;;;4939075;29;20430;-72
2022/09/23 01:46:16;;;;;;;4.70;1.93;;;16.30;80.90;;;;;;4956025;29;20469;-72
2022/09/23 01:49:01;;;;;;;2.57;2.03;;;16.30;81.00;;;;;;4954965;29;20423;-72
2022/09/23 01:51:37;;;;;;;3.13;2.20;;;16.30;81.00;;;;;;4956007;29;20413;-72
2022/09/23 01:54:18;;;;;;;4.63;2.13;;;16.20;80.80;;;;;;4939024;29;20426;-71
2022/09/23 01:56:58;;;;;;;3.00;2.00;;;16.20;80.90;;;;;;4938847;29;20866;-72
2022/09/23 01:59:35;;;;;;;5.13;2.10;;;16.30;81.00;;;;;;4939292;29;20470;-72
2022/09/23 02:02:18;;;;;;;1.93;1.73;;;16.20;80.90;;;;;;4938664;29;20487;-72
2022/09/23 02:05:08;;;;;;;3.47;2.57;;;16.20;80.90;;;;;;4938621;29;20461;-72
2022/09/23 02:07:54;;;;;;;3.50;1.70;;;16.20;80.90;;;;;;4938004;29;20467;-72
2022/09/23 02:10:34;;;;;;;4.30;2.10;;;16.20;81.00;;;;;;4955102;29;20434;-72
2022/09/23 02:13:19;;;;;;;3.00;1.90;;;16.20;81.00;;;;;;4939901;29;20860;-72
2022/09/23 02:15:51;;;;;;;3.20;2.17;;;16.20;81.00;;;;;;4954317;29;20437;-72
2022/09/23 02:18:24;;;;;;;4.80;2.10;;;16.20;81.10;;;;;;4922573;29;20421;-71
2022/09/23 02:20:56;;;;;;;2.17;1.97;;;16.20;81.10;;;;;;4937894;29;20578;-72
2022/09/23 02:23:29;;;;;;;2.40;1.83;;;16.20;81.10;;;;;;4938253;29;20406;-71
2022/09/23 02:26:21;;;;;;;3.57;1.70;;;16.10;81.00;;;;;;4922469;29;20441;-71
2022/09/23 02:29:00;;;;;;;3.37;2.00;;;16.20;81.10;;;;;;4938031;29;20435;-71
2022/09/23 02:31:46;;;;;;;2.60;1.80;;;16.10;81.10;;;;;;4921855;29;20417;-71
2022/09/23 02:34:18;;;;;;;3.03;2.03;;;16.20;81.20;;;;;;4937915;29;20425;-71
2022/09/23 02:37:17;;;;;;;1.90;1.63;;;16.10;81.10;;;;;;4938174;29;20811;-75
2022/09/23 02:40:22;;;;;;;2.60;2.17;;;16.10;81.90;;;;;;4950628;28;20881;-71
2022/09/23 02:42:59;;;;;;;2.57;2.20;;;16.10;81.10;;;;;;4913182;29;20475;-72
2022/09/23 02:45:25;;;;;;;3.27;2.00;;;16.10;81.20;;;;;;4954055;29;20483;-71
2022/09/23 02:48:19;;;;;;;2.70;2.03;;;16.10;81.20;;;;;;4953666;29;20497;-71
2022/09/23 02:50:47;;;;;;;2.20;1.80;;;16.00;81.10;;;;;;4903171;29;20625;-71
2022/09/23 02:53:17;;;;;;;3.30;2.00;;;16.00;81.10;;;;;;4935969;29;20413;-71
2022/09/23 02:55:43;;;;;;;2.47;1.67;;;16.00;81.20;;;;;;4955011;29;21035;-71
2022/09/23 02:58:12;;;;;;;1.70;1.60;;;16.00;81.10;;;;;;4937919;29;20858;-72
2022/09/23 03:01:00;;;;;;;3.27;1.70;;;16.00;81.10;;;;;;4937619;29;20452;-72
2022/09/23 03:03:39;;;;;;;4.43;1.90;;;16.00;81.20;;;;;;4952739;29;20424;-71
2022/09/23 03:06:21;;;;;;;2.47;1.93;;;16.00;81.10;;;;;;4954237;29;20463;-71
2022/09/23 03:09:04;;;;;;;2.67;1.50;;;16.00;81.10;;;;;;4921465;29;20499;-71
2022/09/23 03:11:32;;;;;;;2.50;2.00;;;16.00;81.20;;;;;;4954349;29;20432;-71
2022/09/23 03:14:21;;;;;;;2.90;2.03;;;16.00;81.20;;;;;;4936986;29;20991;-71
2022/09/23 03:17:18;;;;;;;2.47;1.83;;;16.00;81.20;;;;;;4936816;29;20942;-71
2022/09/23 03:20:00;;;;;;;4.40;2.00;;;16.00;81.20;;;;;;4946606;28;20952;-71
2022/09/23 03:22:36;;;;;;;2.23;1.60;;;16.00;81.20;;;;;;4934958;28;20463;-70
2022/09/23 03:25:11;;;;;;;2.80;1.73;;;15.90;81.10;;;;;;4925446;29;20454;-71
2022/09/23 03:27:44;;;;;;;2.30;1.90;;;16.00;81.30;;;;;;4917861;29;20542;-71
2022/09/23 03:30:16;;;;;;;3.30;2.00;;;15.90;81.10;;;;;;4933049;29;20454;-71
2022/09/23 03:32:44;;;;;;;2.30;2.10;;;15.90;81.20;;;;;;4937021;29;20432;-71
2022/09/23 03:35:12;;;;;;;4.97;2.17;;;15.90;81.20;;;;;;4937073;29;20618;-71
2022/09/23 03:37:45;;;;;;;1.97;1.70;;;15.90;81.20;;;;;;4937000;29;20429;-71
2022/09/23 03:40:22;;;;;;;1.77;1.50;;;15.90;81.20;;;;;;4952938;29;21011;-71
2022/09/23 03:42:52;;;;;;;3.40;2.13;;;15.90;81.10;;;;;;4929442;28;20542;-71
2022/09/23 03:45:24;;;;;;;1.80;1.70;;;15.90;81.20;;;;;;4954055;29;20525;-71
2022/09/23 03:47:53;;;;;;;2.10;1.80;;;15.90;81.20;;;;;;4921289;29;20460;-71
2022/09/23 03:50:21;;;;;;;1.90;1.80;;;15.90;81.20;;;;;;4953740;29;20447;-71
2022/09/23 03:52:49;;;;;;;1.70;1.57;;;15.90;81.10;;;;;;4936849;29;20782;-71
2022/09/23 03:55:23;;;;;;;2.40;1.90;;;15.90;81.20;;;;;;4936672;29;20434;-71
2022/09/23 03:57:59;;;;;;;3.60;2.03;;;15.90;81.20;;;;;;4934890;29;20411;-71
2022/09/23 04:00:27;;;;;;;2.13;1.90;;;15.80;81.10;;;;;;4932305;29;20456;-71
2022/09/23 04:03:00;;;;;;;2.00;1.87;;;15.80;81.10;;;;;;4936997;29;20451;-70
2022/09/23 04:05:29;;;;;;;3.03;1.90;;;15.80;81.20;;;;;;4936761;29;20469;-70
2022/09/23 04:07:57;;;;;;;2.87;2.23;;;15.80;81.10;;;;;;4932584;29;20478;-71
2022/09/23 04:10:24;;;;;;;2.33;2.13;;;15.80;81.20;;;;;;4935126;29;20433;-71
2022/09/23 04:12:50;;;;;;;4.30;2.20;;;15.80;81.10;;;;;;4936427;29;20460;-71
2022/09/23 04:15:18;;;;;;;2.27;2.00;;;15.80;81.20;;;;;;4935179;29;20453;-69
2022/09/23 04:17:49;;;;;;;2.80;1.50;;;15.80;81.20;;;;;;4919757;29;20730;-71
2022/09/23 04:20:18;;;;;;;5.90;2.00;;;15.80;81.20;;;;;;4936475;29;20534;-71
2022/09/23 04:22:46;;;;;;;2.13;1.93;;;15.80;81.20;;;;;;4952678;29;20497;-71
2022/09/23 04:25:12;;;;;;;2.00;1.70;;;15.80;81.20;;;;;;4936848;29;20546;-71
2022/09/23 04:27:40;;;;;;;2.13;1.60;;;15.80;81.20;;;;;;4937099;29;20492;-72
2022/09/23 04:30:11;;;;;;;2.10;1.90;;;15.70;81.10;;;;;;4921628;29;20444;-72
2022/09/23 04:32:38;;;;;;;2.00;1.80;;;15.70;81.10;;;;;;4955255;28;20921;-72
2022/09/23 04:35:05;;;;;;;2.07;1.87;;;15.70;81.10;;;;;;4957299;28;20453;-72
2022/09/23 04:37:34;;;;;;;2.70;2.10;;;15.70;81.10;;;;;;4941137;29;20438;-72
2022/09/23 04:40:06;;;;;;;3.00;1.90;;;15.80;81.30;;;;;;4940679;29;20434;-72
2022/09/23 04:42:32;;;;;;;1.73;1.63;;;15.70;81.20;;;;;;4940721;29;20989;-72
2022/09/23 04:44:58;;;;;;;2.23;2.03;;;15.70;81.20;;;;;;4940858;29;20501;-72
2022/09/23 04:47:25;;;;;;;3.63;1.83;;;15.70;81.20;;;;;;4940747;29;21073;-72
2022/09/23 04:49:53;;;;;;;1.80;1.70;;;15.70;81.20;;;;;;4940523;29;20430;-73
2022/09/23 04:52:19;;;;;;;2.37;1.70;;;15.70;81.20;;;;;;4940129;28;20411;-76
2022/09/23 04:54:47;;;;;;;2.57;1.90;;;15.70;81.30;;;;;;4957016;29;20457;-72
2022/09/23 04:57:13;;;;;;;2.17;2.07;;;15.70;81.20;;;;;;4957644;29;20453;-72
2022/09/23 04:59:44;;;;;;;2.00;1.80;;;15.70;81.20;;;;;;4957611;29;20407;-72
2022/09/23 05:02:10;;;;;;;2.53;2.00;;;15.70;81.20;;;;;;4924915;29;20428;-72
2022/09/23 05:04:36;;;;;;;1.90;1.80;;;15.70;81.20;;;;;;4924505;29;20436;-72
2022/09/23 05:07:05;;;;;;;2.40;1.80;;;15.70;81.20;;;;;;4940138;29;20516;-72
2022/09/23 05:09:33;;;;;;;2.20;2.00;;;15.60;81.10;;;;;;4940389;29;20444;-72
2022/09/23 05:12:02;;;;;;;2.30;2.10;;;15.60;81.10;;;;;;4956415;29;20545;-72
2022/09/23 05:14:28;;;;;;;2.10;1.77;;;15.60;81.10;;;;;;4957156;29;20406;-73
2022/09/23 05:16:57;;;;;;;2.30;2.10;;;15.60;81.20;;;;;;4939870;29;20460;-72
2022/09/23 05:19:23;;;;;;;2.50;2.17;;;15.60;82.00;;;;;;4938856;29;20431;-70
2022/09/23 05:21:52;;;;;;;2.70;2.50;;;15.60;81.20;;;;;;4955005;29;20459;-69
2022/09/23 05:24:18;;;;;;;3.23;2.80;;;15.60;81.20;;;;;;4938164;29;20452;-71
2022/09/23 05:26:44;;;;;;;2.23;2.03;;;15.60;81.20;;;;;;4933109;29;21039;-67
2022/09/23 05:29:10;;;;;;;2.43;2.23;;;15.60;81.30;;;;;;4950597;29;20481;-71
2022/09/23 05:31:36;;;;;;;2.30;2.10;;;15.60;81.20;;;;;;4954102;28;20458;-75
2022/09/23 05:34:03;;;;;;;3.00;2.27;;;15.60;81.30;;;;;;4938310;29;20519;-78
2022/09/23 05:36:37;;;;;;;2.23;1.90;;;15.60;81.30;;;;;;4940628;29;20449;-75
2022/09/23 05:39:07;;;;;;;3.10;2.00;;;15.50;81.10;;;;;;4923987;29;20452;-74
2022/09/23 05:41:35;;;;;;;2.53;2.30;;;15.60;81.40;;;;;;4923765;29;20417;-75
2022/09/23 05:44:03;;;;;;;2.60;2.40;;;15.50;81.20;;;;;;4938435;29;20434;-75
2022/09/23 05:46:35;;;;;;;2.27;2.00;;;15.50;81.20;;;;;;4956113;29;20523;-75
2022/09/23 05:49:02;;;;;;;2.60;2.10;;;15.50;81.20;;;;;;4954988;29;21036;-75
2022/09/23 05:51:34;;;;;;;3.33;2.33;;;15.50;81.20;;;;;;4922523;29;20429;-75
2022/09/23 05:54:03;;;;;;;2.83;2.13;;;15.50;81.30;;;;;;4956181;29;20468;-75
2022/09/23 05:56:33;;;;;;;2.20;2.00;;;15.50;81.40;;;;;;4939971;29;20456;-74
2022/09/23 05:59:00;;;;;;;3.70;2.60;;;15.50;81.40;;;;;;4955516;29;20412;-75
2022/09/23 06:01:34;;;;;;;3.77;2.10;;;15.50;81.30;;;;;;4955476;29;20445;-75
2022/09/23 06:04:02;;;;;;;2.30;2.10;;;15.50;81.30;;;;;;4955389;29;20529;-75
2022/09/23 06:06:33;;;;;;;2.37;2.10;;;15.40;81.30;;;;;;4938527;29;20476;-75
2022/09/23 06:09:05;;;;;;;2.50;2.30;;;15.50;81.40;;;;;;4923040;29;20995;-75
2022/09/23 06:11:37;;;;;;;2.20;1.80;;;15.40;81.40;;;;;;4935735;29;20606;-75
2022/09/23 06:14:06;;;;;;;3.07;1.97;;;15.50;81.40;;;;;;4937914;29;20453;-75
2022/09/23 06:16:35;;;;;;;2.30;2.10;;;15.50;81.50;;;;;;4954781;29;20458;-75
2022/09/23 06:19:06;;;;;;;3.50;2.27;;;15.40;81.40;;;;;;4954862;29;20431;-75
2022/09/23 06:21:36;;;;;;;3.73;2.43;;;15.40;81.40;;;;;;4954425;29;20491;-75
2022/09/23 06:24:08;;;;;;;3.80;2.30;;;15.40;81.50;;;;;;4955721;29;20392;-75
2022/09/23 06:26:37;;;;;;;2.53;2.00;;;15.40;81.50;;;;;;4938650;29;20559;-75
2022/09/23 06:29:09;;;;;;;2.80;2.10;;;15.40;81.50;;;;;;4955838;29;20407;-75
2022/09/23 06:31:35;;;;;;;2.10;2.00;;;15.40;81.50;;;;;;4938857;29;20532;-75
2022/09/23 06:34:12;;;;;;;2.13;1.87;;;15.40;81.50;;;;;;4954600;29;20448;-75
2022/09/23 06:36:43;;;;;;;2.53;2.20;;;15.40;81.50;;;;;;4955413;29;20443;-75
2022/09/23 06:39:09;;;;;;;2.90;2.20;;;15.40;81.50;;;;;;4922683;29;20452;-75
2022/09/23 06:41:35;;;;;;;2.40;2.10;;;15.40;81.60;;;;;;4938947;29;20435;-75
2022/09/23 06:44:04;;;;;;;2.40;2.20;;;15.40;81.60;;;;;;4954726;29;20417;-75
2022/09/23 06:46:35;;;;;;;2.80;2.50;;;15.40;81.50;;;;;;4953171;29;20999;-75
2022/09/23 06:49:02;;;;;;;3.13;2.33;;;15.40;81.50;;;;;;4938230;29;20420;-73
2022/09/23 06:51:28;;;;;;;2.17;1.60;;;15.40;81.50;;;;;;4954112;29;20414;-75
2022/09/23 06:53:54;;;;;;;3.53;2.23;;;15.40;81.60;;;;;;4934736;29;20486;-75
2022/09/23 06:56:21;;;;;;;2.50;2.27;;;15.30;81.50;;;;;;4924955;29;20541;-74
2022/09/23 06:58:53;;;;;;;2.43;1.90;;;15.40;81.60;;;;;;4921082;29;20463;-74
2022/09/23 07:01:19;;;;;;;2.40;2.20;;;15.40;81.60;;;;;;4954466;29;20428;-75
2022/09/23 07:03:48;;;;;;;2.50;1.87;;;15.40;81.70;;;;;;4936446;29;20466;-73
2022/09/23 07:06:14;;;;;;;2.10;1.70;;;15.40;81.70;;;;;;4936805;29;20489;-74
2022/09/23 07:08:45;;;;;;;2.30;2.10;;;15.40;81.70;;;;;;4920162;28;20430;-75
2022/09/23 07:11:12;;;;;;;2.73;2.20;;;15.40;81.60;;;;;;4937104;29;20933;-74
2022/09/23 07:13:43;;;;;;;2.93;1.90;;;15.40;81.70;;;;;;4920981;29;20453;-74
2022/09/23 07:16:12;;;;;;;4.23;2.00;;;15.40;81.60;;;;;;4936440;29;20854;-74
2022/09/23 07:18:41;;;;;;;2.57;2.37;;;15.40;81.60;;;;;;4936733;29;20556;-73
2022/09/23 07:21:13;;;;;;;2.83;2.03;;;15.40;81.70;;;;;;4953393;29;20941;-74
2022/09/23 07:23:41;;;;;;;4.13;2.40;;;15.40;81.60;;;;;;4937485;29;20442;-74
2022/09/23 07:26:07;;;;;;;4.33;2.20;;;15.40;81.60;;;;;;4937038;29;20835;-74
2022/09/23 07:28:35;;;;;;;2.63;1.90;;;15.40;81.60;;;;;;4937137;29;20428;-74
2022/09/23 07:31:08;;;;;;;2.40;2.20;;;15.40;81.60;;;;;;4921484;29;20489;-73
2022/09/23 07:33:39;;;;;;;5.57;1.97;;;15.40;81.50;;;;;;4921461;29;20440;-74
2022/09/23 07:36:10;;;;;;;2.93;2.20;;;15.40;81.50;;;;;;4953258;29;20445;-74
2022/09/23 07:38:37;;;;;;;2.10;1.90;;;15.40;81.40;;;;;;4937563;29;20444;-74
2022/09/23 07:41:07;;;;;;;2.93;2.20;;;15.40;81.50;;;;;;4921841;29;20415;-74
2022/09/23 07:43:34;;;;;;;2.53;2.33;;;15.40;81.50;;;;;;4955424;28;20445;-74
2022/09/23 07:46:12;;;;;;;3.30;2.10;;;15.40;81.50;;;;;;4954150;29;20460;-74
2022/09/23 07:48:39;;;;;;;2.43;2.23;;;15.40;81.60;;;;;;5023971;23;20999;-75
2022/09/23 07:51:10;;;;;;;2.57;2.30;;;15.40;81.60;;;;;;4963945;28;20421;-74
2022/09/23 07:53:36;;;;;;;2.53;2.33;;;15.40;81.60;;;;;;4955466;28;20436;-75
2022/09/23 07:56:05;;;;;;;4.60;2.10;;;15.40;81.60;;;;;;4971773;28;20461;-75
2022/09/23 07:58:32;;;;;;;2.43;2.23;;;15.40;81.50;;;;;;4955492;28;20434;-74
2022/09/23 08:01:09;;;;;;;3.37;2.20;;;15.40;81.50;;;;;;4955913;28;20421;-74
2022/09/23 08:03:38;;;;;;;2.60;2.40;;;15.40;81.60;;;;;;4940053;28;20520;-77
2022/09/23 08:06:09;;;;;;;4.27;2.50;;;15.40;81.50;;;;;;4972788;28;20500;-74
2022/09/23 08:08:42;;;;;;;2.60;2.40;;;15.40;81.50;;;;;;4943211;28;20984;-76
2022/09/23 08:11:13;;;;;;;2.27;2.07;;;15.40;81.60;;;;;;4959353;28;20438;-76
2022/09/23 08:13:42;;;;;;;4.43;2.50;;;15.40;81.70;;;;;;4944047;28;20453;-76
2022/09/23 08:16:13;;;;;;;2.83;2.50;;;15.40;81.60;;;;;;4961879;28;20464;-76
2022/09/23 08:18:42;;;;;;;2.23;2.03;;;15.40;81.60;;;;;;4958045;28;20901;-76
2022/09/23 08:21:19;;;;;;;2.67;2.13;;;15.40;81.70;;;;;;4964590;28;20511;-76
2022/09/23 08:23:46;;;;;;;2.53;2.17;;;15.40;81.80;;;;;;4965167;28;20438;-76
2022/09/23 08:26:14;;;;;;;3.33;2.47;;;15.50;81.90;;;;;;4946697;28;20531;-76
2022/09/23 08:28:44;;;;;;;4.57;2.13;;;15.40;81.90;;;;;;4958566;28;20476;-76
2022/09/23 08:31:12;;;;;;;2.80;2.10;;;15.40;81.90;;;;;;4959559;28;20472;-76
2022/09/23 08:33:40;;;;;;;4.73;2.40;;;15.40;81.90;;;;;;4966708;28;20428;-76
2022/09/23 08:36:06;;;;;;;4.73;2.00;;;15.50;81.90;;;;;;4958650;28;20471;-76
2022/09/23 08:38:35;;;;;;;4.50;2.87;;;15.50;81.90;;;;;;4958693;28;20460;-76
2022/09/23 08:41:17;;;;;;;4.53;2.00;;;15.50;82.00;;;;;;4958837;28;20455;-76
2022/09/23 08:43:58;;;;;;;4.97;2.17;;;15.50;82.10;;;;;;4967296;28;20415;-77
2022/09/23 08:46:32;;;;;;;2.27;2.07;;;15.50;82.10;;;;;;4958886;28;20476;-76
2022/09/23 08:49:32;;;;;;;3.47;2.50;;;15.50;82.20;;;;;;4947327;28;20467;-75
2022/09/23 08:52:05;;;;;;;2.40;2.10;;;15.50;82.10;;;;;;4959257;28;20445;-76
2022/09/23 08:54:35;;;;;;;2.37;2.17;;;15.50;82.00;;;;;;4944684;28;20510;-76
2022/09/23 08:57:04;;;;;;;2.23;2.03;;;15.50;82.10;;;;;;4958841;28;20448;-75
2022/09/23 08:59:43;;;;;;;2.20;2.00;;;15.50;82.00;;;;;;4975620;28;20437;-75
2022/09/23 09:02:18;;;;;;;3.60;2.30;;;15.50;82.00;;;;;;4975440;28;20980;-74
2022/09/23 09:04:53;;;;;;;3.17;2.40;;;15.50;81.90;;;;;;4958058;28;20454;-74
2022/09/23 09:07:31;;;;;;;3.00;2.67;;;15.50;81.90;;;;;;4957561;28;20465;-73
2022/09/23 09:10:02;;;;;;;4.00;2.57;;;15.60;82.20;;;;;;4942250;28;20437;-76
2022/09/23 09:12:43;;;;;;;2.47;2.10;;;15.60;82.30;;;;;;4958091;28;20434;-74
2022/09/23 09:15:20;;;;;;;2.87;2.20;;;15.60;82.30;;;;;;4942030;28;20442;-74
2022/09/23 09:18:06;;;;;;;2.20;2.00;;;15.60;82.30;;;;;;4944573;28;20488;-74
2022/09/23 09:20:46;;;;;;;2.90;2.33;;;15.60;82.30;;;;;;4958195;28;20430;-75
2022/09/23 09:23:29;;;;;;;2.43;2.03;;;15.60;82.30;;;;;;4957537;28;20973;-74
2022/09/23 09:26:03;;;;;;;3.37;2.70;;;15.60;82.30;;;;;;4957266;28;20481;-76
2022/09/23 09:28:36;;;;;;;2.60;2.40;;;15.60;82.30;;;;;;4957285;28;20426;-73
2022/09/23 09:31:31;;;;;;;4.70;2.40;;;15.60;82.30;;;;;;4942476;28;20459;-74
2022/09/23 09:34:15;;;;;;;2.20;2.00;;;15.60;82.40;;;;;;4940433;28;21009;-75
2022/09/23 09:37:16;;;;;;;2.47;1.83;;;15.60;82.30;;;;;;4969721;28;20436;-75
2022/09/23 09:40:00;;;;;;;4.50;2.10;;;15.70;82.40;;;;;;4961625;28;20443;-75
2022/09/23 09:42:39;;;;;;;3.17;2.60;;;15.70;82.40;;;;;;4973067;28;20435;-73
2022/09/23 09:45:36;;;;;;;2.17;1.83;;;15.70;82.50;;;;;;4941322;28;20964;-73
2022/09/23 09:48:12;;;;;;;3.43;2.20;;;15.70;82.50;;;;;;4962252;28;20471;-74
2022/09/23 09:50:47;;;;;;;5.20;2.27;;;15.70;82.50;;;;;;4958131;28;20456;-74
2022/09/23 09:53:29;;;;;;;4.43;2.50;;;15.70;82.50;;;;;;4978189;28;20447;-73
2022/09/23 09:56:04;;;;;;;3.63;2.60;;;15.70;82.60;;;;;;4961378;28;20455;-73
2022/09/23 09:59:07;;;;;;;2.30;1.97;;;15.70;82.60;;;;;;4954903;28;20435;-74
2022/09/23 10:01:35;;;;;;;2.87;2.60;;;15.80;82.70;;;;;;4955280;28;20457;-74
2022/09/23 10:04:18;;;;;;;3.73;2.10;;;15.80;82.60;;;;;;4941265;28;20465;-73
2022/09/23 10:07:08;;;;;;;2.87;2.13;;;15.80;82.50;;;;;;4966237;28;21034;-73
2022/09/23 10:09:36;;;;;;;3.43;2.47;;;15.80;82.50;;;;;;4956456;28;20475;-73
2022/09/23 10:12:13;;;;;;;2.80;2.60;;;15.80;82.50;;;;;;4956586;28;20414;-73
2022/09/23 10:14:42;;;;;;;3.40;2.30;;;15.90;82.50;;;;;;4956747;28;20864;-73
2022/09/23 10:17:25;;;;;;;2.90;2.13;;;15.90;82.50;;;;;;4951334;28;20439;-76
2022/09/23 10:19:59;;;;;;;4.33;2.33;;;15.90;82.40;;;;;;4973772;28;20733;-74
2022/09/23 10:22:35;;;;;;;2.80;2.50;;;15.90;82.40;;;;;;4941851;28;20884;-74
2022/09/23 10:25:07;;;;;;;4.63;2.20;;;15.90;82.40;;;;;;4959613;28;20540;-75
2022/09/23 10:27:38;;;;;;;2.73;2.53;;;16.00;82.30;;;;;;4958511;28;20469;-74
2022/09/23 10:30:21;;;;;;;2.47;2.10;;;16.00;82.30;;;;;;4969467;28;20539;-73
2022/09/23 10:32:53;;;;;;;2.63;2.43;;;16.00;82.30;;;;;;4962830;28;20427;-75
2022/09/23 10:35:23;;;;;;;3.07;2.53;;;16.00;83.00;;;;;;4947931;28;20496;-75
2022/09/23 10:37:57;;;;;;;2.87;2.60;;;16.10;82.30;;;;;;4929056;29;20810;-75
2022/09/23 10:46:40;;;;;;;2.70;2.50;;;16.10;82.10;;;;;;4974904;28;20991;-76
2022/09/23 10:49:29;;;;;;;3.20;2.33;;;16.10;82.10;;;;;;4972605;28;20933;-75
2022/09/23 10:51:58;;;;;;;3.53;2.97;;;16.20;82.10;;;;;;4948153;28;20456;-74
2022/09/23 10:54:35;;;;;;;2.70;2.40;;;16.20;82.90;;;;;;4956286;28;20447;-75
2022/09/23 10:57:36;;;;;;;3.50;3.20;;;16.20;82.00;;;;;;4971636;28;20952;-76
2022/09/23 11:00:13;;;;;;;3.50;2.60;;;16.20;81.90;;;;;;4962685;28;20437;-75
2022/09/23 11:03:08;;;;;;;4.77;2.63;;;16.20;81.80;;;;;;4966308;28;20477;-75
2022/09/23 11:05:56;;;;;;;4.60;3.33;;;16.20;81.80;;;;;;4966484;28;20558;-76
2022/09/23 11:08:50;;;;;;;5.43;2.67;;;16.30;81.80;;;;;;4973787;28;20854;-76
2022/09/23 11:11:42;;;;;;;3.10;2.80;;;16.30;81.70;;;;;;4967760;28;20805;-75
2022/09/23 11:14:33;;;;;;;3.30;2.33;;;16.30;81.60;;;;;;4940805;28;20473;-75
2022/09/23 11:17:27;;;;;;;4.30;2.90;;;16.30;81.60;;;;;;4956182;28;20484;-76
2022/09/23 11:20:20;;;;;;;3.83;2.90;;;16.40;81.80;;;;;;4955756;28;20732;-75
2022/09/23 11:22:52;;;;;;;3.30;2.50;;;16.40;81.80;;;;;;4942328;28;20475;-75
2022/09/23 11:25:27;;;;;;;2.67;2.47;;;16.40;81.70;;;;;;4961258;28;20838;-75
2022/09/23 11:28:09;;;;;;;3.00;2.63;;;16.50;81.80;;;;;;4971815;28;20470;-74
2022/09/23 11:31:24;;;;;;;3.13;2.57;;;16.50;81.80;;;;;;4955725;28;20471;-73
2022/09/23 11:34:21;;;;;;;3.40;2.83;;;16.50;81.70;;;;;;4912598;29;20557;-73
2022/09/23 11:36:58;;;;;;;3.60;2.50;;;16.50;81.60;;;;;;4973003;28;20435;-73
2022/09/23 11:39:41;;;;;;;2.77;2.57;;;16.60;81.70;;;;;;4955589;28;20463;-73
2022/09/23 11:42:39;;;;;;;2.60;2.40;;;16.60;81.80;;;;;;4951768;28;20454;-73
2022/09/23 11:45:23;;;;;;;4.27;2.50;;;16.60;81.70;;;;;;4952054;29;20456;-73
2022/09/23 11:48:28;;;;;;;2.73;2.33;;;16.60;81.70;;;;;;4965205;28;20475;-72
2022/09/23 11:51:07;;;;;;;3.67;2.40;;;16.70;81.60;;;;;;4936971;29;20429;-73
2022/09/23 11:53:48;;;;;;;3.93;2.23;;;16.70;81.50;;;;;;4936559;29;20426;-73
2022/09/23 11:56:40;;;;;;;3.80;2.63;;;16.70;81.50;;;;;;4965453;28;20507;-75
2022/09/23 11:59:14;;;;;;;3.00;2.70;;;16.80;81.70;;;;;;4966116;28;20492;-74
2022/09/23 12:01:48;;;;;;;2.93;2.60;;;16.80;81.80;;;;;;4953527;28;20927;-76
2022/09/23 12:04:35;;;;;;;2.93;2.63;;;16.80;81.70;;;;;;4941452;28;20482;-74
2022/09/23 12:07:09;;;;;;;5.17;3.23;;;16.80;81.60;;;;;;4953620;28;20901;-74
2022/09/23 12:09:53;;;;;;;3.63;2.50;;;16.90;81.70;;;;;;4945940;28;20514;-76
2022/09/23 12:13:15;;;;;;;3.07;2.87;;;16.90;81.70;;;;;;4937358;29;20468;-74
2022/09/23 12:15:53;;;;;;;3.10;2.43;;;16.90;81.60;;;;;;4905525;28;20534;-74
2022/09/23 12:18:54;;;;;;;2.53;2.10;;;16.90;81.60;;;;;;4955408;28;20922;-77
2022/09/23 12:21:28;;;;;;;2.80;2.50;;;17.00;81.80;;;;;;4969831;28;20418;-78
2022/09/23 12:24:01;;;;;;;2.37;2.17;;;17.00;81.70;;;;;;4954238;28;20439;-75
2022/09/23 12:26:29;;;;;;;2.60;2.40;;;17.00;81.70;;;;;;4955360;28;20467;-73
2022/09/23 12:29:13;;;;;;;5.20;2.40;;;17.00;81.60;;;;;;4950511;28;20536;-72
2022/09/23 12:31:45;;;;;;;3.60;2.33;;;17.00;81.60;;;;;;4920935;29;20433;-74
2022/09/23 12:34:30;;;;;;;3.10;2.40;;;17.10;81.70;;;;;;4963516;28;20445;-72
2022/09/23 12:37:05;;;;;;;3.33;3.00;;;17.00;81.50;;;;;;4955136;28;20780;-72
2022/09/23 12:39:44;;;;;;;3.00;2.10;;;17.10;81.60;;;;;;4967062;28;20464;-72
2022/09/23 12:42:20;;;;;;;2.90;2.40;;;17.10;81.60;;;;;;4955116;28;20435;-73
2022/09/23 12:44:48;;;;;;;2.70;2.47;;;17.10;81.50;;;;;;4954806;28;20814;-73
2022/09/23 12:47:14;;;;;;;2.80;2.50;;;17.10;81.50;;;;;;4939327;28;20871;-74
2022/09/23 12:49:41;;;;;;;2.83;2.43;;;17.20;81.50;;;;;;4959603;28;20928;-73
2022/09/23 12:52:16;;;;;;;2.57;2.13;;;17.10;81.50;;;;;;4936252;28;20396;-74
2022/09/23 12:54:44;;;;;;;2.50;2.30;;;17.20;81.50;;;;;;4973110;28;21039;-74
2022/09/23 12:57:11;;;;;;;2.97;2.30;;;17.20;81.50;;;;;;4942990;28;20793;-74
2022/09/23 13:00:13;;;;;;;3.23;2.30;;;17.20;81.40;;;;;;4964025;28;20442;-74
2022/09/23 13:02:42;;;;;;;2.40;2.17;;;17.20;81.40;;;;;;4972793;28;20457;-74
2022/09/23 13:08:17;;;;;;;6.23;2.60;;;17.30;81.60;;;;;;4974824;28;20881;-73
2022/09/23 13:10:49;;;;;;;4.30;2.40;;;17.30;81.50;;;;;;4974767;28;20440;-73
2022/09/23 13:13:38;;;;;;;4.40;2.20;;;17.30;81.40;;;;;;4958171;28;20953;-74
2022/09/23 13:16:29;;;;;;;5.80;2.83;;;17.30;81.40;;;;;;4939695;28;20467;-74
2022/09/23 13:19:25;;;;;;;3.63;2.20;;;17.30;81.30;;;;;;4956357;28;20445;-74
2022/09/23 13:22:00;;;;;;;3.07;2.70;;;17.40;81.40;;;;;;4942577;28;20437;-74
2022/09/23 13:24:27;;;;;;;2.63;2.40;;;17.40;81.50;;;;;;4942156;28;20467;-74
2022/09/23 13:27:10;;;;;;;3.03;2.63;;;17.40;81.50;;;;;;4958338;28;20469;-76
2022/09/23 13:29:45;;;;;;;3.07;2.50;;;17.40;81.40;;;;;;4941094;28;20433;-75
2022/09/23 13:32:16;;;;;;;5.00;2.57;;;17.40;81.40;;;;;;4956689;28;20961;-74
2022/09/23 13:34:51;;;;;;;7.07;2.57;;;17.40;81.30;;;;;;4956733;28;20893;-74
2022/09/23 13:37:23;;;;;;;3.40;2.50;;;17.40;81.10;;;;;;4955536;28;20453;-74
2022/09/23 13:40:05;;;;;;;2.60;2.40;;;17.40;81.10;;;;;;4949141;29;20879;-79